Terminal Aerodrome Forecast
Issued by NWS

Home | Current Version | Previous Version | Text Only | Print | Product List | Glossary Off
Versions: 1 2 3 4 5 6 7 8 9 10 11 12 13 14

000
FTUS45 KGGW 242326
TAFOLF
TAF
KOLF 242326Z 2500/2524 35009KT P6SM BKN090
     FM250300 04005KT P6SM FEW090
     FM251800 01007KT P6SM FEW100=

USA.gov is the U.S. government's official web portal to all federal, state and local government web resources and services.